메인 페이지
METAR-TAF:

METAR-TAF

공항 :

빅토리아, 마에 섬, 세이셸

세이셸 국제공항

위도: 04-40S, 경도: 055-31E, 고도: 3m

현재 날씨관측

예보는 28분 전, 09:00시(UTC)에 발표되었습니다.
북서10kt
온도 29°C
습도 74%
기압 1009 hPa
시정 10km 이상
고도 1700ft 상공 구름 많음

METAR: FSIA 180900Z 32010KT 9999 BKN017 29/24 Q1009 NOSIG

시각: 13:28 (09:28 UTC)

예보

예보는 4 시간 25분 전, 05:03시(UTC)에 발표되었습니다.
예보 대상 시간: 18일 06시부터 19일 06시까지 (UTC)
북서10kt
시정 10km 이상
고도 1900ft 상공 구름 보통
일시적
18일 06시부터 18일 09시까지 (UTC)
고도 1700ft 상공 구름 많음
약한소나기

TAF: FSIA 180503Z 1806/1906 31010KT 9999 SCT019 TEMPO 1806/1809 -SHRA BKN017

4,000개 이상의 공항 관측 자료 및 예보 (METAR 및 TAF 보고).

지도상에서 검색 가능한 기상관측소가 노란 점과 빨간 점으로 표시되어 있습니다.

기상관측소 명을 보려면 표시 위로 마우스를 이동하세요.

날씨 관측과 예보를 보려면 클릭하세요.

지도 변경 : 확대하려면 엑스 표시가 있는 녹색 버튼, 축소하려면 빼기 표시가 있는 녹색 버튼, 다음 페이지의 지도를 보려면 녹색 화살표를 클릭하세요.


METAR-TAF: